Pemaquid Point Lighthouse, ME

43° 50' 13"N, 69° 30' 22"W, Elevation 40 ft.
Eastern Time

Hourly observations for the last 72 hours

Date Time Temperature (°F) Humi-
dity

(%)
Wind
(mph)
Pressure Rain (in) Sun
(W/m2)
UV ET
(in)
Air Dew 6 Hour 1 Hr 3 Hr 6 Hr Day
Alt
(in)
Sea
Level

(mb)
Max Min
24 01:00 52.6 44.9 75 W 10 G 15 30.02 1016.6 0.00 0 0.0 0.000
24 00:00 51.6 45.3 79 W 6 G 10 30.00 1015.8 1.23 0 0.0 0.060
23 23:00 52.1 45.1 77 W 5 G 8 29.99 1015.6 1.23 0 0.0 0.058
23 22:00 53.4 46.0 76 W 6 G 9 29.97 1014.8 1.23 0 0.0 0.056
23 21:00 55.9 46.6 71 W 8 G 13 29.93 1013.7 1.23 0 0.0 0.054
23 20:00 56.9 46.8 61.4 53.3 69 W 11 G 16 29.89 1012.2 1.23 0 0.0 0.052
23 19:00 56.4 49.3 77 W 4 G 7 29.85 1010.9 1.23 0 0.0 0.050
23 18:00 57.7 50.2 76 W 8 G 10 29.81 1009.4 1.23 0 0.0 0.048
23 17:00 60.7 51.3 71 W 7 G 13 29.77 1008.2 1.23 49 0.0 0.043
23 16:00 60.8 55.3 82 W 8 G 18 29.74 1007.1 1.23 306 0.7 0.034
23 15:00 57.6 54.4 89 W 11 G 21 29.71 1006.1 1.23 473 1.3 0.024
23 14:00 53.3 51.6 56.6 51.7 94 WNW 14 G 25 29.67 1004.9 0.05 0.99 1.23 267 1.6 0.018
23 13:00 52.0 50.6 95 WNW 16 G 25 29.65 1004.2 1.23 218 1.5 0.015
23 12:00 55.9 54.8 96 SW 4 G 8 29.66 1004.5 0.05 1.23 120 0.9 0.013
23 11:00 56.0 54.6 95 S 11 G 17 29.69 1005.6 0.23 0.94 1.18 56 0.6 0.011
23 10:00 56.3 54.9 95 SSE 19 G 27 29.71 1006.0 0.50 0.95 21 0.0 0.010
23 09:00 56.2 54.8 95 SE 22 G 30 29.71 1006.3 0.21 0.45 0 0.0 0.009
23 08:00 55.9 54.5 56.0 53.3 95 ESE 28 G 34 29.72 1006.3 0.01 0.12 0.23 0.24 26 0.0 0.008
23 07:00 55.6 54.2 95 SE 21 G 28 29.75 1007.6 0.05 0.23 0 0.0 0.007
23 06:00 55.2 53.8 95 ESE 24 G 35 29.77 1008.2 0.06 0.18 0 0.0 0.006
23 05:00 54.8 53.1 94 ESE 33 G 38 29.78 1008.5 0.04 0.11 0.12 0 0.0 0.005
23 04:00 54.2 52.5 94 ESE 27 G 34 29.81 1009.4 0.04 0.08 0 0.0 0.004
23 03:00 53.5 51.8 94 E 26 G 32 29.84 1010.6 0.03 0.04 0 0.0 0.003
23 02:00 53.4 51.4 53.8 53.2 93 E 26 G 34 29.89 1012.2 0.01 0.01 0.01 0.01 0 0.0 0.002
23 01:00 53.4 50.8 91 E 25 G 33 29.94 1014.0 0.00 0 0.0 0.000
23 00:00 53.7 50.8 90 E 24 G 28 29.98 1015.3 0.00 0 0.0 0.058
22 23:00 53.5 50.6 90 E 26 G 31 30.01 1016.2 0.00 0 0.0 0.056
22 22:00 53.6 50.4 89 E 24 G 29 30.06 1017.9 0.00 0 0.0 0.054
22 21:00 53.7 50.2 88 E 24 G 31 30.06 1017.8 0.00 0 0.0 0.052
22 20:00 53.3 50.1 54.4 53.3 89 ENE 21 G 25 30.08 1018.8 0.00 0 0.0 0.051
22 19:00 53.7 50.2 88 ENE 15 G 25 30.10 1019.4 0.00 0 0.0 0.050
22 18:00 53.5 50.0 88 ENE 17 G 22 30.12 1020.1 0.00 0 0.0 0.048
22 17:00 53.7 49.9 87 ENE 17 G 25 30.11 1019.7 0.00 49 0.0 0.045
22 16:00 54.0 50.2 87 ENE 18 G 24 30.12 1020.0 0.00 114 0.5 0.041
22 15:00 54.2 50.4 87 NE 13 G 17 30.14 1020.7 0.00 162 1.0 0.038
22 14:00 54.3 50.8 55.4 50.2 88 NE 13 G 19 30.15 1020.9 0.00 97 0.8 0.030
22 13:00 55.0 51.5 88 ENE 13 G 18 30.15 1021.1 0.00 503 2.8 0.021
22 12:00 54.7 50.9 87 ENE 14 G 19 30.16 1021.3 0.00 476 3.2 0.012
22 11:00 52.9 48.8 86 NE 14 G 16 30.17 1021.5 0.00 406 2.4 0.007
22 10:00 51.5 48.1 88 NNE 5 G 11 30.18 1022.0 0.00 190 1.4 0.004
22 09:00 50.8 47.1 87 NNE 9 G 13 30.17 1021.8 0.00 132 0.7 0.001
22 08:00 50.2 47.1 50.3 44.9 89 NE 13 G 18 30.16 1021.2 0.00 69 0.0 0.000
22 07:00 47.6 45.1 91 NNE 8 G 12 30.15 1021.1 0.00 0 0.0 0.000
22 06:00 47.6 45.4 92 NNE 8 G 13 30.16 1021.5 0.00 0 0.0 0.000
22 05:00 46.5 44.6 93 N 7 G 11 30.17 1021.7 0.00 0 0.0 0.000
22 04:00 45.7 43.5 92 N 2 G 3 30.16 1021.4 0.00 0 0.0 0.000
22 03:00 46.4 44.5 93 NNW 6 G 9 30.17 1021.9 0.00 0 0.0 0.000
22 02:00 46.5 44.9 49.1 44.8 94 NNW 3 G 8 30.17 1021.6 0.00 0 0.0 0.000
22 01:00 48.7 47.1 94 NNE 4 G 6 30.17 1021.8 0.00 0 0.0 0.000
22 00:00 48.8 46.9 93 NNE 4 G 8 30.16 1021.4 0.00 0 0.0 0.073
21 23:00 47.9 46.0 93 NW 6 G 8 30.18 1022.1 0.00 0 0.0 0.073
21 22:00 47.3 45.1 92 NNE 3 G 4 30.17 1021.5 0.00 0 0.0 0.073
21 21:00 46.9 44.7 92 ESE 0 G 2 30.16 1021.5 0.00 0 0.0 0.073
21 20:00 48.1 45.6 60.0 48.1 91 ESE 1 G 2 30.17 1021.6 0.00 0 0.0 0.073
21 19:00 49.4 46.6 90 Calm 30.15 1021.0 0.00 0 0.0 0.073
21 18:00 54.0 50.2 87 ESE 1 G 3 30.12 1020.1 0.00 0 0.0 0.072
21 17:00 56.0 51.9 86 ESE 5 G 6 30.10 1019.4 0.00 46 0.0 0.068
21 16:00 58.4 53.9 85 ESE 5 G 8 30.10 1019.2 0.00 322 0.7 0.059
21 15:00 57.5 53.0 85 SE 13 G 14 30.09 1019.0 0.00 480 1.3 0.047
21 14:00 59.8 54.6 60.5 48.5 83 SSE 3 G 6 30.09 1019.1 0.00 510 2.3 0.035
21 13:00 58.0 53.8 86 E 4 G 5 30.09 1019.1 0.00 643 2.9 0.023
21 12:00 56.6 52.8 87 E 4 G 4 30.11 1019.6 0.00 524 2.9 0.011
21 11:00 54.3 51.1 89 NE 5 G 9 30.10 1019.2 0.00 566 2.3 0.005
21 10:00 52.6 50.0 91 NE 7 G 9 30.10 1019.2 0.00 42 0.0 0.004
21 09:00 50.8 48.9 93 NNE 5 G 8 30.13 1020.3 0.00 35 0.0 0.003
21 08:00 48.6 46.7 53.1 48.6 93 NNW 5 G 7 30.12 1019.9 0.00 19 0.0 0.002
21 07:00 49.6 47.7 93 NNE 6 G 7 30.08 1018.7 0.00 0 0.0 0.002
21 06:00 50.7 48.5 92 N 4 G 6 30.08 1018.8 0.00 0 0.0 0.002
21 05:00 50.8 48.6 92 N 3 G 4 30.06 1017.8 0.00 0 0.0 0.002
21 04:00 51.8 49.3 91 NW 4 G 6 30.06 1017.8 0.00 0 0.0 0.002
21 03:00 53.1 50.5 91 SSE 5 G 8 30.05 1017.7 0.00 0 0.0 0.002
21 02:00 53.1 50.5 53.2 51.3 91 SSE 5 G 8 30.06 1017.9 0.00 0 0.0 0.001

Data generated by WxSolution Version 1.9.1.5, Build 2018.05.20.